createdAt,value
2023-03-22T00:00:00.442Z,63.82
2023-03-22T00:02:27.606Z,63.22
2023-03-22T00:04:54.700Z,63.44
2023-03-22T00:07:21.852Z,63.72
2023-03-22T00:09:48.816Z,64.09
2023-03-22T00:12:15.826Z,64.25
2023-03-22T00:14:43.031Z,64.25
2023-03-22T00:17:10.112Z,63.75
2023-03-22T00:19:37.539Z,63.80
2023-03-22T00:22:06.414Z,63.53
2023-03-22T00:24:33.484Z,63.94
2023-03-22T00:27:01.137Z,64.19
2023-03-22T00:29:28.334Z,64.19
2023-03-22T00:31:56.410Z,64.02
2023-03-22T00:34:23.624Z,64.13
2023-03-22T00:36:52.035Z,63.93
2023-03-22T00:39:20.042Z,64.13
2023-03-22T00:41:47.878Z,63.66
2023-03-22T00:44:14.833Z,64.23
2023-03-22T00:46:41.757Z,64.01
2023-03-22T00:49:08.994Z,63.75
2023-03-22T00:51:36.068Z,63.98
2023-03-22T00:54:03.137Z,64.45
2023-03-22T00:56:30.204Z,64.01
2023-03-22T00:59:04.616Z,64.78
2023-03-22T01:01:31.722Z,64.76
2023-03-22T01:03:58.988Z,65.06
2023-03-22T01:06:26.002Z,64.81
2023-03-22T01:08:55.341Z,64.88
2023-03-22T01:11:22.310Z,64.52
2023-03-22T01:13:50.524Z,65.36
2023-03-22T01:16:18.528Z,65.17
2023-03-22T01:18:45.604Z,65.79
2023-03-22T01:21:13.132Z,65.72
2023-03-22T01:23:40.670Z,66.46
2023-03-22T01:26:07.896Z,66.05
2023-03-22T01:28:34.906Z,66.64
2023-03-22T01:31:02.935Z,66.00
2023-03-22T01:33:30.713Z,65.70
2023-03-22T01:35:58.277Z,66.53
2023-03-22T01:38:25.827Z,66.15
2023-03-22T01:40:59.082Z,65.97
2023-03-22T01:43:28.479Z,66.13
2023-03-22T01:45:57.695Z,66.25
2023-03-22T01:48:46.319Z,66.52
2023-03-22T01:51:25.398Z,67.72
2023-03-22T01:54:13.740Z,67.59
2023-03-22T01:56:42.076Z,67.35
2023-03-22T01:59:15.818Z,67.60
2023-03-22T02:02:10.980Z,67.76
2023-03-22T02:04:39.427Z,67.61
2023-03-22T02:07:15.691Z,67.73
2023-03-22T02:09:46.714Z,67.89
2023-03-22T02:12:32.941Z,67.70
2023-03-22T02:15:09.082Z,67.87
2023-03-22T02:18:41.762Z,68.43
2023-03-22T02:21:21.667Z,68.15
2023-03-22T02:23:58.197Z,67.33
2023-03-22T02:26:53.498Z,68.16
2023-03-22T02:30:04.626Z,67.50
2023-03-22T02:32:43.767Z,66.88
2023-03-22T02:35:26.065Z,67.10
2023-03-22T02:38:14.620Z,67.54
2023-03-22T02:40:58.605Z,67.10
2023-03-22T02:43:41.728Z,67.38
2023-03-22T02:46:27.506Z,67.04
2023-03-22T02:49:16.704Z,67.20
2023-03-22T02:52:01.610Z,67.33
2023-03-22T02:54:44.685Z,66.71
2023-03-22T02:57:29.796Z,66.88
2023-03-22T02:59:58.560Z,67.14
2023-03-22T03:02:28.281Z,66.71
2023-03-22T03:04:57.153Z,66.63
2023-03-22T03:07:28.155Z,66.07
2023-03-22T03:09:55.669Z,66.64
2023-03-22T03:12:26.077Z,66.58
2023-03-22T03:14:55.341Z,66.71
2023-03-22T03:17:42.006Z,66.32
2023-03-22T03:20:30.383Z,66.36
2023-03-22T03:23:22.663Z,66.48
2023-03-22T03:26:12.425Z,66.13
2023-03-22T03:28:49.945Z,65.86
2023-03-22T03:31:46.636Z,66.22
2023-03-22T03:34:24.696Z,65.97
2023-03-22T03:37:00.317Z,65.59
2023-03-22T03:39:32.450Z,65.72
2023-03-22T03:42:02.670Z,65.64
2023-03-22T03:44:31.492Z,66.08
2023-03-22T03:46:59.857Z,65.98
2023-03-22T03:49:27.383Z,66.20
2023-03-22T03:51:56.230Z,65.43
2023-03-22T03:54:24.066Z,65.74
2023-03-22T03:56:51.078Z,65.37
2023-03-22T03:59:19.115Z,65.78
2023-03-22T04:01:52.542Z,65.80
2023-03-22T04:04:30.045Z,65.79
2023-03-22T04:07:05.743Z,66.00
2023-03-22T04:09:37.510Z,65.91
2023-03-22T04:12:16.532Z,66.09
2023-03-22T04:14:52.395Z,65.95
2023-03-22T04:17:24.560Z,65.82
2023-03-22T04:19:53.723Z,66.11
2023-03-22T04:22:20.995Z,66.22
2023-03-22T04:24:50.288Z,66.14
2023-03-22T04:27:22.391Z,66.63
2023-03-22T04:29:56.163Z,66.71
2023-03-22T04:32:43.292Z,66.21
2023-03-22T04:35:11.493Z,66.54
2023-03-22T04:37:38.484Z,66.44
2023-03-22T04:40:20.951Z,66.47
2023-03-22T04:43:04.222Z,66.43
2023-03-22T04:45:47.459Z,66.58
2023-03-22T04:48:22.292Z,66.60
2023-03-22T04:50:53.468Z,66.25
2023-03-22T04:53:27.492Z,66.84
2023-03-22T04:55:59.115Z,66.92
2023-03-22T04:58:28.245Z,66.83
2023-03-22T05:00:55.300Z,66.60
2023-03-22T05:03:23.640Z,66.24
2023-03-22T05:05:53.514Z,66.28
2023-03-22T05:08:26.935Z,66.44
2023-03-22T05:10:59.152Z,66.84
2023-03-22T05:13:27.966Z,66.30
2023-03-22T05:15:55.461Z,66.76
2023-03-22T05:18:30.457Z,66.85
2023-03-22T05:20:59.773Z,66.56
2023-03-22T05:23:27.360Z,65.82
2023-03-22T05:25:58.387Z,66.36
2023-03-22T05:28:28.783Z,66.16
2023-03-22T05:31:17.236Z,65.91
2023-03-22T05:33:54.384Z,66.09
2023-03-22T05:36:24.213Z,65.49
2023-03-22T05:39:08.246Z,65.67
2023-03-22T05:41:36.762Z,65.23
2023-03-22T05:44:05.349Z,65.18
2023-03-22T05:46:33.730Z,64.40
2023-03-22T05:49:39.191Z,64.61
2023-03-22T05:52:07.717Z,64.34
2023-03-22T05:54:47.645Z,64.38
2023-03-22T05:57:14.694Z,64.12
2023-03-22T05:59:41.761Z,63.90
2023-03-22T06:02:11.931Z,63.83
2023-03-22T06:04:41.690Z,64.12
2023-03-22T06:07:14.344Z,64.23
2023-03-22T06:09:53.723Z,64.12
2023-03-22T06:12:28.883Z,64.53
2023-03-22T06:15:03.753Z,63.81
2023-03-22T06:17:33.717Z,63.74
2023-03-22T06:20:00.893Z,63.76
2023-03-22T06:22:30.624Z,63.67
2023-03-22T06:24:57.953Z,63.71
2023-03-22T06:27:34.804Z,64.09
2023-03-22T06:30:01.927Z,63.61
2023-03-22T06:32:33.398Z,64.09
2023-03-22T06:35:00.438Z,63.61
2023-03-22T06:37:27.436Z,64.24
2023-03-22T06:39:55.730Z,64.02
2023-03-22T06:42:26.177Z,63.83
2023-03-22T06:45:04.165Z,63.63
2023-03-22T06:47:34.140Z,64.12
2023-03-22T06:50:01.050Z,64.06
2023-03-22T06:52:47.466Z,63.92
2023-03-22T06:55:14.549Z,63.28
2023-03-22T06:57:42.069Z,63.09
2023-03-22T07:00:10.890Z,63.03
2023-03-22T07:02:38.034Z,62.66
2023-03-22T07:05:25.322Z,62.28
2023-03-22T07:07:52.327Z,61.76
2023-03-22T07:10:19.492Z,62.39
2023-03-22T07:12:47.289Z,61.81
2023-03-22T07:15:17.773Z,61.60
2023-03-22T07:18:08.626Z,61.14
2023-03-22T07:20:38.677Z,61.30
2023-03-22T07:23:06.922Z,60.84
2023-03-22T07:25:41.663Z,60.57
2023-03-22T07:28:30.909Z,60.92
2023-03-22T07:31:11.655Z,59.75
2023-03-22T07:33:59.417Z,59.57
2023-03-22T07:36:30.075Z,61.31
2023-03-22T07:38:57.288Z,59.51
2023-03-22T07:41:30.391Z,57.04
2023-03-22T07:44:18.187Z,56.38
2023-03-22T07:47:22.144Z,54.63
2023-03-22T07:50:14.409Z,51.83
2023-03-22T07:52:43.518Z,48.41
2023-03-22T07:55:13.435Z,48.23
2023-03-22T07:57:41.350Z,46.81
2023-03-22T08:00:10.596Z,44.94
2023-03-22T08:02:46.793Z,43.80
2023-03-22T08:05:30.542Z,44.16
2023-03-22T08:08:01.436Z,42.71
2023-03-22T08:10:28.546Z,43.73
2023-03-22T08:12:55.876Z,42.97
2023-03-22T08:15:26.206Z,43.21
2023-03-22T08:17:57.983Z,43.24
2023-03-22T08:20:35.585Z,42.13
2023-03-22T08:23:08.154Z,40.81
2023-03-22T08:26:04.939Z,40.10
2023-03-22T08:28:32.974Z,40.23
2023-03-22T08:31:00.008Z,39.48
2023-03-22T08:33:28.725Z,39.03
2023-03-22T08:36:12.242Z,36.55
2023-03-22T08:38:46.216Z,37.29
2023-03-22T08:41:16.303Z,36.62
2023-03-22T08:43:43.517Z,35.92
2023-03-22T08:46:10.961Z,36.04
2023-03-22T08:48:38.658Z,35.97
2023-03-22T08:51:22.633Z,33.47
2023-03-22T08:54:04.092Z,35.18
2023-03-22T08:56:50.431Z,34.67
2023-03-22T08:59:39.966Z,35.81
2023-03-22T09:02:25.155Z,35.94
2023-03-22T09:04:53.544Z,36.29
2023-03-22T09:07:20.983Z,36.93
2023-03-22T09:09:56.793Z,37.35
2023-03-22T09:12:26.296Z,37.01
2023-03-22T09:14:55.802Z,36.35
2023-03-22T09:17:25.326Z,36.01
2023-03-22T09:20:02.759Z,34.96
2023-03-22T09:22:37.399Z,33.78
2023-03-22T09:25:04.917Z,33.13
2023-03-22T09:27:32.995Z,31.88
2023-03-22T09:30:00.334Z,29.94
2023-03-22T09:32:27.425Z,29.59
2023-03-22T09:34:59.761Z,28.08
2023-03-22T09:37:37.387Z,25.69
2023-03-22T09:40:09.954Z,25.66
2023-03-22T09:42:40.949Z,26.31
2023-03-22T09:45:27.841Z,25.73
2023-03-22T09:47:56.643Z,26.57
2023-03-22T09:50:28.761Z,27.14
2023-03-22T09:52:56.294Z,28.10
2023-03-22T09:55:46.098Z,29.19
2023-03-22T09:58:30.753Z,29.14
2023-03-22T10:01:01.377Z,31.06
2023-03-22T10:03:35.901Z,30.88
2023-03-22T10:06:08.653Z,29.94
2023-03-22T10:09:06.929Z,29.44
2023-03-22T10:12:05.094Z,29.50
2023-03-22T10:14:45.521Z,30.26
2023-03-22T10:17:16.734Z,29.92
2023-03-22T10:19:58.803Z,28.95
2023-03-22T10:22:31.512Z,28.98
2023-03-22T10:25:01.490Z,28.40
2023-03-22T10:27:31.772Z,28.14
2023-03-22T10:30:08.700Z,27.14
2023-03-22T10:33:03.403Z,28.72
2023-03-22T10:35:31.943Z,29.34
2023-03-22T10:38:02.507Z,29.86
2023-03-22T10:40:33.961Z,29.77
2023-03-22T10:43:10.593Z,30.72
2023-03-22T10:45:38.222Z,31.50
2023-03-22T10:48:25.788Z,32.18
2023-03-22T10:50:53.712Z,32.40
2023-03-22T10:53:20.672Z,33.30
2023-03-22T10:55:47.635Z,33.80
2023-03-22T10:58:20.900Z,34.32
2023-03-22T11:00:49.380Z,34.39
2023-03-22T11:03:37.452Z,35.45
2023-03-22T11:06:07.569Z,36.45
2023-03-22T11:08:53.963Z,36.46
2023-03-22T11:11:31.136Z,36.47
2023-03-22T11:14:01.199Z,38.76
2023-03-22T11:16:30.653Z,37.92
2023-03-22T11:19:01.400Z,38.10
2023-03-22T11:21:32.328Z,38.05
2023-03-22T11:24:06.955Z,38.32
2023-03-22T11:26:40.532Z,37.72
2023-03-22T11:29:14.053Z,37.96
2023-03-22T11:31:57.411Z,38.34
2023-03-22T11:34:27.986Z,38.44
2023-03-22T11:36:57.181Z,38.83
2023-03-22T11:39:28.511Z,38.88
2023-03-22T11:42:06.484Z,39.20
2023-03-22T11:44:35.693Z,39.50
2023-03-22T11:47:04.620Z,39.88
2023-03-22T11:49:45.668Z,40.85
2023-03-22T11:52:18.080Z,40.09
2023-03-22T11:54:46.540Z,40.45
2023-03-22T11:57:23.427Z,40.70
2023-03-22T12:00:14.255Z,43.16
2023-03-22T12:03:00.744Z,41.71
2023-03-22T12:05:33.946Z,41.86
2023-03-22T12:08:00.869Z,41.55
2023-03-22T12:10:52.643Z,41.97
2023-03-22T12:13:25.748Z,42.46
2023-03-22T12:16:01.035Z,41.87
2023-03-22T12:18:39.682Z,42.31
2023-03-22T12:21:09.541Z,42.53
2023-03-22T12:23:37.117Z,42.09
2023-03-22T12:26:18.188Z,43.07
2023-03-22T12:29:04.207Z,43.96
2023-03-22T12:31:50.366Z,44.31
2023-03-22T12:34:25.927Z,42.96
2023-03-22T12:36:57.356Z,42.81
2023-03-22T12:39:27.107Z,42.61
2023-03-22T12:41:58.074Z,43.36
2023-03-22T12:44:31.933Z,43.02
2023-03-22T12:47:05.494Z,42.74
2023-03-22T12:49:49.070Z,43.43
2023-03-22T12:52:22.607Z,43.06
2023-03-22T12:54:52.194Z,43.03
2023-03-22T12:57:19.970Z,43.07
2023-03-22T12:59:51.700Z,43.22
2023-03-22T13:02:35.479Z,43.95
2023-03-22T13:05:06.839Z,43.32
2023-03-22T13:07:39.848Z,43.96
2023-03-22T13:10:40.484Z,44.24
2023-03-22T13:13:07.649Z,43.96
2023-03-22T13:15:42.248Z,44.37
2023-03-22T13:18:45.433Z,44.93
2023-03-22T13:21:19.601Z,45.21
2023-03-22T13:24:01.776Z,45.67
2023-03-22T13:26:53.114Z,45.49
2023-03-22T13:29:27.118Z,45.56
2023-03-22T13:32:03.664Z,46.42
2023-03-22T13:34:44.555Z,47.14
2023-03-22T13:37:30.329Z,46.49
2023-03-22T13:40:02.262Z,47.28
2023-03-22T13:42:38.898Z,47.46
2023-03-22T13:45:10.026Z,47.03
2023-03-22T13:47:47.077Z,47.36
2023-03-22T13:50:13.967Z,46.40
2023-03-22T13:52:44.321Z,46.70
2023-03-22T13:55:34.249Z,47.32
2023-03-22T13:58:04.209Z,46.97
2023-03-22T14:00:31.496Z,46.85
2023-03-22T14:03:04.085Z,46.63
2023-03-22T14:05:36.597Z,46.62
2023-03-22T14:08:04.445Z,47.15
2023-03-22T14:10:44.449Z,47.25
2023-03-22T14:13:32.476Z,47.15
2023-03-22T14:16:08.652Z,46.90
2023-03-22T14:18:39.672Z,46.75
2023-03-22T14:21:19.338Z,46.65
